Time;durP1;ratioP1;P1;durP2;ratioP2;P2;SDS_P1;SDS_P2;PMS_P1;PMS_P2;Temp;Humidity;BMP_temperature;BMP_pressure;BME280_temperature;BME280_humidity;BME280_pressure;Samples;Min_cycle;Max_cycle;Signal;HPM_P1;HPM_P2
2023/10/24 00:00:00;;;;;;;1999.90;999.90;;;;;;;;;;4979159;28;20390;-95
2023/10/24 00:02:26;;;;;;;1999.90;999.90;;;;;;;;;;4979135;28;20019;-95
2023/10/24 00:04:52;;;;;;;1571.32;999.90;;;;;;;;;;4981069;28;20026;-93
2023/10/24 00:07:24;;;;;;;1543.68;999.90;;;;;;;;;;4980092;28;20101;-91
2023/10/24 00:09:50;;;;;;;1694.25;999.90;;;;;;;;;;4978844;28;20035;-95
2023/10/24 00:12:17;;;;;;;1971.95;999.90;;;;;;;;;;4978907;28;20026;-96
2023/10/24 00:14:43;;;;;;;1999.90;999.90;;;;;;;;;;4978824;28;20062;-95
2023/10/24 00:17:09;;;;;;;1999.90;999.90;;;;;;;;;;4978723;28;20054;-95
2023/10/24 00:19:35;;;;;;;1999.90;999.90;;;;;;;;;;4978818;28;20125;-94
2023/10/24 00:22:01;;;;;;;1999.90;999.90;;;;;;;;;;4978813;28;20019;-96
2023/10/24 00:24:27;;;;;;;1998.13;999.90;;;;;;;;;;4978669;28;20040;-95
2023/10/24 00:26:55;;;;;;;1576.50;999.90;;;;;;;;;;4978768;28;20042;-95
2023/10/24 00:29:21;;;;;;;1631.13;999.90;;;;;;;;;;4978600;28;20034;-94
2023/10/24 00:31:47;;;;;;;1999.90;999.90;;;;;;;;;;4977590;28;20543;-96
2023/10/24 00:34:14;;;;;;;1980.20;999.90;;;;;;;;;;4978479;28;20046;-95
2023/10/24 00:36:42;;;;;;;1977.10;999.90;;;;;;;;;;4962496;28;20168;-95
2023/10/24 00:39:09;;;;;;;1999.90;999.90;;;;;;;;;;4978251;28;20035;-93
2023/10/24 00:41:38;;;;;;;1999.90;999.90;;;;;;;;;;4979025;28;20022;-94
2023/10/24 00:44:04;;;;;;;1999.90;999.90;;;;;;;;;;4988519;28;20033;-93
2023/10/24 00:46:30;;;;;;;1999.90;999.90;;;;;;;;;;4968675;28;20031;-93
2023/10/24 00:48:57;;;;;;;1664.63;999.90;;;;;;;;;;4959212;28;20029;-93
2023/10/24 00:51:23;;;;;;;1967.95;999.90;;;;;;;;;;4958964;28;20058;-95
2023/10/24 00:53:50;;;;;;;1931.07;999.90;;;;;;;;;;4967911;28;20399;-95
2023/10/24 00:56:16;;;;;;;1971.82;999.90;;;;;;;;;;4977847;28;20041;-95
2023/10/24 00:58:42;;;;;;;1884.30;999.90;;;;;;;;;;4978055;28;20030;-95
2023/10/24 01:01:11;;;;;;;1999.90;999.90;;;;;;;;;;4978205;28;20026;-96
2023/10/24 01:03:37;;;;;;;1537.10;999.90;;;;;;;;;;4978048;28;20065;-94
2023/10/24 01:06:04;;;;;;;1999.90;999.90;;;;;;;;;;4960549;28;20042;-95
2023/10/24 01:08:30;;;;;;;1622.97;999.90;;;;;;;;;;4958694;28;20031;-95
2023/10/24 01:10:56;;;;;;;1999.90;999.90;;;;;;;;;;4958824;28;20046;-94
2023/10/24 01:13:23;;;;;;;1999.90;999.90;;;;;;;;;;4958510;28;20023;-95
2023/10/24 01:15:49;;;;;;;1999.90;999.90;;;;;;;;;;4958925;28;20102;-95
2023/10/24 01:18:15;;;;;;;1999.90;999.90;;;;;;;;;;4958529;28;20073;-95
2023/10/24 01:20:41;;;;;;;1513.57;999.90;;;;;;;;;;4958578;28;20031;-94
2023/10/24 01:23:10;;;;;;;1999.90;999.90;;;;;;;;;;4958839;28;20027;-94
2023/10/24 01:25:40;;;;;;;1999.90;999.90;;;;;;;;;;4958336;28;20026;-94
2023/10/24 01:28:08;;;;;;;1503.38;999.90;;;;;;;;;;4958439;28;20118;-95
2023/10/24 01:30:39;;;;;;;1999.90;999.90;;;;;;;;;;4958363;28;20187;-95
2023/10/24 01:33:06;;;;;;;1593.07;999.90;;;;;;;;;;4972431;28;20050;-95
2023/10/24 01:35:32;;;;;;;1999.90;999.90;;;;;;;;;;4977730;28;20038;-95
2023/10/24 01:37:58;;;;;;;1999.90;999.90;;;;;;;;;;4977827;28;20030;-94
2023/10/24 01:40:24;;;;;;;1588.38;999.90;;;;;;;;;;4977687;28;20064;-95
2023/10/24 01:42:50;;;;;;;1997.40;999.90;;;;;;;;;;4980032;28;20022;-95
2023/10/24 01:45:16;;;;;;;1847.88;999.90;;;;;;;;;;4981626;28;20026;-94
2023/10/24 01:47:43;;;;;;;1950.00;999.90;;;;;;;;;;4981640;28;20026;-94
2023/10/24 01:50:09;;;;;;;1707.28;999.90;;;;;;;;;;4981428;28;20038;-94
2023/10/24 01:52:35;;;;;;;1514.28;999.90;;;;;;;;;;4979263;28;20407;-94
2023/10/24 01:55:01;;;;;;;1532.72;999.90;;;;;;;;;;4967648;28;20530;-95
2023/10/24 01:57:28;;;;;;;1645.40;999.90;;;;;;;;;;4984424;28;20015;-95
2023/10/24 01:59:54;;;;;;;1502.10;999.90;;;;;;;;;;4983247;28;20026;-95
2023/10/24 02:02:20;;;;;;;1564.65;999.90;;;;;;;;;;4974390;28;20030;-95
2023/10/24 02:04:46;;;;;;;1604.70;999.90;;;;;;;;;;4981728;28;20030;-94
2023/10/24 02:07:12;;;;;;;1919.40;999.90;;;;;;;;;;4978581;28;20475;-94
2023/10/24 02:09:38;;;;;;;1888.82;999.90;;;;;;;;;;4961895;28;20661;-94
2023/10/24 02:12:04;;;;;;;1689.88;999.90;;;;;;;;;;4978502;28;20030;-94
2023/10/24 02:14:31;;;;;;;1672.43;999.90;;;;;;;;;;4980718;28;20033;-94
2023/10/24 02:16:57;;;;;;;1656.18;999.90;;;;;;;;;;4981073;28;20058;-93
2023/10/24 02:19:24;;;;;;;1558.15;999.90;;;;;;;;;;4980869;28;20026;-94
2023/10/24 02:21:50;;;;;;;1542.95;999.90;;;;;;;;;;4980777;28;20057;-96
2023/10/24 02:24:16;;;;;;;1598.30;999.90;;;;;;;;;;4980946;28;20030;-94
2023/10/24 02:26:43;;;;;;;1572.20;999.90;;;;;;;;;;4980800;28;20033;-94
2023/10/24 02:29:09;;;;;;;1621.47;999.90;;;;;;;;;;4980910;28;20030;-93
2023/10/24 02:31:35;;;;;;;1565.45;999.90;;;;;;;;;;4980608;28;20026;-95
2023/10/24 02:34:02;;;;;;;1752.78;999.90;;;;;;;;;;4980586;28;20108;-93
2023/10/24 02:36:28;;;;;;;1749.97;999.90;;;;;;;;;;4980892;28;20460;-94
2023/10/24 02:38:54;;;;;;;1601.20;999.90;;;;;;;;;;4980821;28;20073;-94
2023/10/24 02:41:20;;;;;;;1729.07;999.90;;;;;;;;;;4989113;28;20049;-93
2023/10/24 02:43:46;;;;;;;1755.93;999.90;;;;;;;;;;4988457;28;20090;-94
2023/10/24 02:46:13;;;;;;;1776.57;999.90;;;;;;;;;;4996989;28;20077;-93
2023/10/24 02:48:39;;;;;;;1547.60;999.90;;;;;;;;;;4998614;28;20023;-93
2023/10/24 02:51:05;;;;;;;1736.03;999.90;;;;;;;;;;4981349;28;20046;-95
2023/10/24 02:53:31;;;;;;;1902.28;999.90;;;;;;;;;;4979180;28;20372;-94
2023/10/24 02:56:01;;;;;;;1468.72;995.90;;;;;;;;;;4962190;28;20185;-94
2023/10/24 02:58:27;;;;;;;1800.13;999.90;;;;;;;;;;4961007;28;20117;-94
2023/10/24 03:00:53;;;;;;;1697.05;999.90;;;;;;;;;;4960813;28;20041;-94
2023/10/24 03:03:19;;;;;;;1763.53;999.90;;;;;;;;;;4960607;28;20472;-95
2023/10/24 03:05:45;;;;;;;1660.38;999.90;;;;;;;;;;4975925;28;20027;-94
2023/10/24 03:08:11;;;;;;;1657.65;999.90;;;;;;;;;;4980254;28;20064;-94
2023/10/24 03:10:41;;;;;;;1428.40;992.83;;;;;;;;;;4980156;28;20022;-95
2023/10/24 03:13:07;;;;;;;1599.60;999.90;;;;;;;;;;4979575;28;20045;-94
2023/10/24 03:15:36;;;;;;;1941.68;999.90;;;;;;;;;;4980590;28;20038;-94
2023/10/24 03:18:02;;;;;;;1977.03;999.90;;;;;;;;;;4979886;28;20072;-94
2023/10/24 03:20:28;;;;;;;1477.88;998.15;;;;;;;;;;4979884;28;20058;-94
2023/10/24 03:22:58;;;;;;;1446.55;998.40;;;;;;;;;;4974013;28;20073;-95
2023/10/24 03:25:44;;;;;;;1999.90;999.90;;;;;;;;;;4960639;28;20557;-95
2023/10/24 03:28:14;;;;;;;1999.90;999.90;;;;;;;;;;4960374;28;20050;-94
2023/10/24 03:30:40;;;;;;;1507.43;999.90;;;;;;;;;;4960331;28;20023;-95
2023/10/24 03:33:06;;;;;;;1912.50;999.90;;;;;;;;;;4974970;28;20030;-94
2023/10/24 03:35:33;;;;;;;1635.03;999.90;;;;;;;;;;4962089;28;20038;-95
2023/10/24 03:37:59;;;;;;;1542.78;999.90;;;;;;;;;;4960222;28;20066;-95
2023/10/24 03:40:26;;;;;;;1509.63;999.90;;;;;;;;;;4960058;28;20031;-96
2023/10/24 03:42:53;;;;;;;1862.53;999.90;;;;;;;;;;4960035;28;20047;-94
2023/10/24 03:45:19;;;;;;;1716.82;999.90;;;;;;;;;;4960082;28;20321;-94
2023/10/24 03:47:46;;;;;;;1999.90;999.90;;;;;;;;;;4971026;28;20049;-94
2023/10/24 03:50:13;;;;;;;1843.18;999.90;;;;;;;;;;4988736;28;20069;-94
2023/10/24 03:52:41;;;;;;;1999.90;999.90;;;;;;;;;;5014475;28;20122;-95
2023/10/24 03:55:35;;;;;;;1930.60;999.90;;;;;;;;;;4965361;28;20554;-95
2023/10/24 03:58:07;;;;;;;1550.85;999.90;;;;;;;;;;4993250;28;20051;-93
2023/10/24 04:00:35;;;;;;;1995.97;999.90;;;;;;;;;;4982176;28;20103;-94
2023/10/24 04:03:05;;;;;;;1766.47;999.90;;;;;;;;;;4976146;28;20035;-94
2023/10/24 04:05:33;;;;;;;1999.90;999.90;;;;;;;;;;4977128;28;20139;-94
2023/10/24 04:08:00;;;;;;;1999.90;999.90;;;;;;;;;;4975968;28;20122;-93
2023/10/24 04:10:27;;;;;;;1999.90;999.90;;;;;;;;;;4976137;28;20447;-94
2023/10/24 04:12:53;;;;;;;1994.68;999.90;;;;;;;;;;4959565;28;20104;-94
2023/10/24 04:15:19;;;;;;;1875.15;999.90;;;;;;;;;;4975819;28;20078;-95
2023/10/24 04:17:45;;;;;;;1538.65;999.38;;;;;;;;;;4959564;28;20031;-93
2023/10/24 04:20:17;;;;;;;1999.90;999.90;;;;;;;;;;4959753;28;20026;-94
2023/10/24 04:22:53;;;;;;;1999.90;999.90;;;;;;;;;;4959717;28;20054;-94
2023/10/24 04:25:22;;;;;;;1922.60;999.90;;;;;;;;;;4959404;28;20476;-93
2023/10/24 04:27:49;;;;;;;1595.70;999.90;;;;;;;;;;4977066;28;20027;-95
2023/10/24 04:30:15;;;;;;;1999.90;999.90;;;;;;;;;;4975525;28;20459;-92
2023/10/24 04:32:41;;;;;;;1999.90;999.90;;;;;;;;;;4959316;28;20026;-94
2023/10/24 04:35:07;;;;;;;1999.90;999.90;;;;;;;;;;4975405;28;20039;-94
2023/10/24 04:37:33;;;;;;;1841.85;999.90;;;;;;;;;;4959445;28;20027;-94
2023/10/24 04:40:00;;;;;;;1999.90;999.90;;;;;;;;;;4959334;28;20436;-94
2023/10/24 04:42:26;;;;;;;1996.55;999.90;;;;;;;;;;4959702;28;20027;-92
2023/10/24 04:44:52;;;;;;;1792.28;999.90;;;;;;;;;;4967403;28;20408;-94
2023/10/24 04:47:18;;;;;;;1999.90;999.90;;;;;;;;;;4967023;28;20077;-93
2023/10/24 04:49:47;;;;;;;1999.90;999.90;;;;;;;;;;4979567;28;20085;-91
2023/10/24 04:52:13;;;;;;;1999.90;999.90;;;;;;;;;;5002057;28;20046;-93
2023/10/24 04:57:43;;;;;;;1999.90;999.90;;;;;;;;;;5007068;23;20077;-93
2023/10/24 05:00:13;;;;;;;1999.90;999.90;;;;;;;;;;4978191;28;20052;-94
2023/10/24 05:02:39;;;;;;;1999.90;999.90;;;;;;;;;;4978106;28;20037;-94
2023/10/24 05:05:06;;;;;;;1999.90;999.90;;;;;;;;;;4978326;28;20383;-95
2023/10/24 05:07:33;;;;;;;1999.90;999.90;;;;;;;;;;4995756;28;20030;-95
2023/10/24 05:10:02;;;;;;;1999.90;999.90;;;;;;;;;;4978214;28;20026;-94
2023/10/24 05:12:28;;;;;;;1999.90;999.90;;;;;;;;;;4979432;28;20034;-95
2023/10/24 05:14:54;;;;;;;1999.90;999.90;;;;;;;;;;4979848;28;20088;-96
2023/10/24 05:17:20;;;;;;;1931.80;999.90;;;;;;;;;;4978831;28;20121;-94
2023/10/24 05:19:46;;;;;;;1999.90;999.90;;;;;;;;;;4979625;28;20537;-95
2023/10/24 05:22:14;;;;;;;1940.20;999.90;;;;;;;;;;4978521;28;20113;-95
2023/10/24 05:24:40;;;;;;;1916.95;999.90;;;;;;;;;;4979870;28;20038;-96
2023/10/24 05:27:09;;;;;;;1999.90;999.90;;;;;;;;;;4981817;28;20026;-94
2023/10/24 05:29:37;;;;;;;1999.90;999.90;;;;;;;;;;4981909;28;20021;-95
2023/10/24 05:32:06;;;;;;;1912.35;999.90;;;;;;;;;;5377033;23;20046;-95
2023/10/24 05:34:32;;;;;;;1999.90;999.90;;;;;;;;;;5227748;23;20053;-94
2023/10/24 05:36:58;;;;;;;1797.40;999.90;;;;;;;;;;5010259;28;20042;-92
2023/10/24 05:39:26;;;;;;;1999.90;999.90;;;;;;;;;;5017219;28;20030;-93
2023/10/24 05:41:53;;;;;;;1999.90;999.90;;;;;;;;;;5009679;28;20022;-93
2023/10/24 05:44:19;;;;;;;1988.72;999.90;;;;;;;;;;5000848;28;20120;-93
2023/10/24 05:46:46;;;;;;;1874.93;999.90;;;;;;;;;;5000739;28;20038;-94
2023/10/24 05:49:12;;;;;;;1999.90;999.90;;;;;;;;;;5021580;28;20023;-95
2023/10/24 05:51:38;;;;;;;1999.90;999.90;;;;;;;;;;5021985;28;20033;-93
2023/10/24 05:54:11;;;;;;;1569.43;999.90;;;;;;;;;;5011542;28;20125;-92
2023/10/24 05:56:57;;;;;;;1837.95;999.90;;;;;;;;;;4986829;28;20277;-94
2023/10/24 05:59:26;;;;;;;1999.90;999.90;;;;;;;;;;4971871;28;20113;-95
2023/10/24 06:01:52;;;;;;;1999.90;999.90;;;;;;;;;;4958688;28;20047;-93
2023/10/24 06:04:24;;;;;;;1999.90;999.90;;;;;;;;;;4974000;28;20027;-96
2023/10/24 06:06:50;;;;;;;1426.57;990.42;;;;;;;;;;4958264;28;20121;-95
2023/10/24 06:09:16;;;;;;;1999.90;999.90;;;;;;;;;;4958184;28;20472;-94
2023/10/24 06:11:42;;;;;;;1871.32;999.90;;;;;;;;;;4957466;28;20042;-93
2023/10/24 06:14:10;;;;;;;1999.90;999.90;;;;;;;;;;4956980;28;20546;-93
2023/10/24 06:16:36;;;;;;;1579.47;999.90;;;;;;;;;;4957327;28;20046;-93
2023/10/24 17:15:45;;;;;;;1040.82;900.25;;;;;;;;;;5009627;28;20120;-93
2023/10/24 17:18:51;;;;;;;;;;;;;;;;;;;;;
2023/10/24 17:24:09;;;;;;;1248.45;962.03;;;;;;;;;;5003952;28;20045;-91
2023/10/24 17:30:01;;;;;;;1335.22;979.50;;;;;;;;;;5206059;23;21300;-93
2023/10/24 17:41:45;;;;;;;1034.82;896.60;;;;;;;;;;4982281;28;20065;-94
2023/10/24 17:44:11;;;;;;;1323.50;984.63;;;;;;;;;;4987948;28;20034;-92
2023/10/24 17:46:50;;;;;;;1200.40;944.75;;;;;;;;;;4980623;28;20039;-90
2023/10/24 17:56:17;;;;;;;1139.60;950.00;;;;;;;;;;5001089;28;20561;-93
2023/10/24 17:58:49;;;;;;;1291.10;982.90;;;;;;;;;;4984661;28;20030;-92
2023/10/24 18:01:24;;;;;;;1203.20;950.72;;;;;;;;;;4985859;28;20061;-93
2023/10/24 18:04:22;;;;;;;1105.30;908.83;;;;;;;;;;4963830;28;20041;-92
2023/10/24 18:06:49;;;;;;;1057.68;902.35;;;;;;;;;;4964430;28;20139;-93
2023/10/24 18:11:53;;;;;;;1257.75;960.13;;;;;;;;;;4999265;28;20068;-93
2023/10/24 18:14:43;;;;;;;1162.45;949.47;;;;;;;;;;4982219;28;20030;-93
2023/10/24 18:17:14;;;;;;;1147.88;926.80;;;;;;;;;;4980284;28;20039;-93
2023/10/24 18:19:46;;;;;;;1093.72;918.08;;;;;;;;;;4974276;28;20113;-92
2023/10/24 18:22:25;;;;;;;1341.63;954.42;;;;;;;;;;4981433;28;20027;-92
2023/10/24 18:24:57;;;;;;;898.80;804.67;;;;;;;;;;4987078;28;20054;-91
2023/10/24 18:39:24;;;;;;;959.30;853.00;;;;;;;;;;4934302;29;20079;-92
2023/10/24 18:42:08;;;;;;;890.85;796.00;;;;;;;;;;4907538;29;20036;-91
2023/10/24 18:56:34;;;;;;;842.15;755.00;;;;;;;;;;4987409;28;20169;-92
2023/10/24 18:59:20;;;;;;;828.42;743.58;;;;;;;;;;4979178;28;20034;-92
2023/10/24 19:02:15;;;;;;;874.97;780.60;;;;;;;;;;4973855;28;20034;-92
2023/10/24 19:05:04;;;;;;;866.03;774.28;;;;;;;;;;4970565;28;20051;-92
2023/10/24 19:07:36;;;;;;;883.78;792.80;;;;;;;;;;4971651;28;20038;-92
2023/10/24 19:10:24;;;;;;;920.60;820.65;;;;;;;;;;4973347;28;20006;-92
2023/10/24 19:12:59;;;;;;;896.72;799.10;;;;;;;;;;4967890;28;20027;-92
2023/10/24 19:15:29;;;;;;;861.75;770.33;;;;;;;;;;4967464;28;20026;-92
2023/10/24 19:17:58;;;;;;;911.92;817.00;;;;;;;;;;4966696;28;20034;-92
2023/10/24 19:20:27;;;;;;;861.60;772.85;;;;;;;;;;4964483;28;20058;-92
2023/10/24 19:23:09;;;;;;;848.67;764.78;;;;;;;;;;4966846;28;20591;-92
2023/10/24 19:25:41;;;;;;;892.17;795.72;;;;;;;;;;4970620;28;20030;-91
2023/10/24 19:40:53;;;;;;;866.40;776.42;;;;;;;;;;4977397;28;20082;-95
2023/10/24 19:43:29;;;;;;;919.58;801.55;;;;;;;;;;4965088;28;20034;-94
2023/10/24 19:49:18;;;;;;;910.20;802.38;;;;;;;;;;4949134;29;20038;-93
2023/10/24 19:52:05;;;;;;;861.10;769.92;;;;;;;;;;4964734;28;20023;-92
2023/10/24 19:54:31;;;;;;;873.13;780.30;;;;;;;;;;4947567;29;20412;-95
2023/10/24 19:57:06;;;;;;;877.67;783.85;;;;;;;;;;4946292;29;20035;-94
2023/10/24 19:59:32;;;;;;;837.55;753.17;;;;;;;;;;4945683;29;20069;-93
2023/10/24 20:05:46;;;;;;;853.72;764.28;;;;;;;;;;4880852;29;20037;-93
2023/10/24 20:08:22;;;;;;;856.05;766.35;;;;;;;;;;4901157;29;20110;-95
2023/10/24 20:10:54;;;;;;;939.25;820.95;;;;;;;;;;4921474;29;20040;-94
2023/10/24 20:13:38;;;;;;;860.97;777.53;;;;;;;;;;4916263;29;20036;-93
2023/10/24 20:16:24;;;;;;;833.65;753.58;;;;;;;;;;5097166;23;20062;-94
2023/10/24 20:19:19;;;;;;;894.28;804.15;;;;;;;;;;4985740;28;20049;-94
2023/10/24 20:21:46;;;;;;;861.30;778.92;;;;;;;;;;4954245;28;20050;-93
2023/10/24 20:24:31;;;;;;;870.17;784.90;;;;;;;;;;4979270;28;20117;-93
2023/10/24 20:27:04;;;;;;;848.75;767.38;;;;;;;;;;4983237;28;20034;-94
2023/10/24 20:29:33;;;;;;;849.47;768.55;;;;;;;;;;4978480;28;20480;-93
2023/10/24 20:43:04;;;;;;;851.65;770.78;;;;;;;;;;5038817;23;20060;-93
2023/10/24 20:48:46;;;;;;;854.15;772.13;;;;;;;;;;5004906;28;20045;-93
2023/10/24 20:51:34;;;;;;;860.92;777.80;;;;;;;;;;4989296;28;20026;-93
2023/10/24 20:54:03;;;;;;;890.80;805.22;;;;;;;;;;4987133;28;20030;-94
2023/10/24 21:02:40;;;;;;;844.20;764.25;;;;;;;;;;5006045;28;20053;-95
2023/10/24 21:08:35;;;;;;;895.08;807.80;;;;;;;;;;5003508;28;20045;-96
2023/10/24 21:11:19;;;;;;;865.08;782.65;;;;;;;;;;4984641;28;20053;-94
2023/10/24 21:13:45;;;;;;;880.72;795.65;;;;;;;;;;4980705;28;20041;-94
2023/10/24 21:19:28;;;;;;;862.75;781.00;;;;;;;;;;4996394;28;20553;-95
2023/10/24 21:22:01;;;;;;;843.25;763.65;;;;;;;;;;4980270;28;20471;-93
2023/10/24 21:24:35;;;;;;;895.80;808.40;;;;;;;;;;4978877;28;20121;-93
2023/10/24 21:27:14;;;;;;;872.70;789.38;;;;;;;;;;4978804;28;20513;-95
2023/10/24 21:29:43;;;;;;;837.53;757.88;;;;;;;;;;4979715;28;20030;-96
2023/10/24 21:32:15;;;;;;;839.22;762.13;;;;;;;;;;4980048;28;20034;-95
2023/10/24 21:37:29;;;;;;;873.90;789.90;;;;;;;;;;5196434;23;20051;-96
2023/10/24 21:40:08;;;;;;;891.47;805.70;;;;;;;;;;4990068;28;20047;-96
2023/10/24 21:42:43;;;;;;;835.10;755.55;;;;;;;;;;4985398;28;20037;-96
2023/10/24 21:45:35;;;;;;;862.80;780.50;;;;;;;;;;4995515;28;20023;-96
2023/10/24 21:48:13;;;;;;;907.03;816.80;;;;;;;;;;4979237;28;20027;-95
2023/10/24 21:50:43;;;;;;;849.35;765.38;;;;;;;;;;4978470;28;20076;-96
2023/10/24 21:53:12;;;;;;;823.53;748.33;;;;;;;;;;4978456;28;20475;-95
2023/10/24 21:55:44;;;;;;;879.22;796.03;;;;;;;;;;4978505;28;20046;-95
2023/10/24 21:58:13;;;;;;;852.13;769.58;;;;;;;;;;4977962;28;20027;-96
2023/10/24 22:00:48;;;;;;;899.15;809.38;;;;;;;;;;4962519;28;20038;-95
2023/10/24 22:03:26;;;;;;;876.20;790.25;;;;;;;;;;4962694;28;20027;-96
2023/10/24 22:05:55;;;;;;;847.75;767.80;;;;;;;;;;4962248;28;20411;-95
2023/10/24 22:08:21;;;;;;;835.72;757.22;;;;;;;;;;4961719;28;20023;-95
2023/10/24 22:10:50;;;;;;;867.38;784.75;;;;;;;;;;4962635;28;20142;-96
2023/10/24 22:13:22;;;;;;;872.05;788.33;;;;;;;;;;4962667;28;20023;-94
2023/10/24 22:15:54;;;;;;;841.38;762.05;;;;;;;;;;4964803;28;20545;-96
2023/10/24 22:18:26;;;;;;;860.60;778.88;;;;;;;;;;4982081;28;20026;-95
2023/10/24 22:20:52;;;;;;;859.33;779.80;;;;;;;;;;4981203;28;20407;-96
2023/10/24 22:23:24;;;;;;;893.90;807.25;;;;;;;;;;4981694;28;20468;-96
2023/10/24 22:25:53;;;;;;;889.33;798.88;;;;;;;;;;4957485;29;20436;-95
2023/10/24 22:28:20;;;;;;;859.38;775.78;;;;;;;;;;4941902;29;20560;-95
2023/10/24 22:30:58;;;;;;;833.25;756.03;;;;;;;;;;4942926;29;20043;-95
2023/10/24 22:33:35;;;;;;;839.10;759.20;;;;;;;;;;4926802;29;20039;-96
2023/10/24 22:36:01;;;;;;;827.17;749.20;;;;;;;;;;4942452;29;20046;-96
2023/10/24 22:38:33;;;;;;;848.90;763.38;;;;;;;;;;4941712;29;20051;-96
2023/10/24 22:41:02;;;;;;;852.78;770.97;;;;;;;;;;4942696;29;20039;-95
2023/10/24 22:43:29;;;;;;;849.85;768.72;;;;;;;;;;4941616;29;20377;-96
2023/10/24 22:46:13;;;;;;;834.72;753.22;;;;;;;;;;4941999;29;20450;-96
2023/10/24 22:48:42;;;;;;;852.70;763.25;;;;;;;;;;4941864;29;20027;-96
2023/10/24 22:51:20;;;;;;;871.08;781.58;;;;;;;;;;4940741;29;20039;-95
2023/10/24 22:53:46;;;;;;;858.42;771.38;;;;;;;;;;4941176;29;20143;-96
2023/10/24 22:56:21;;;;;;;807.53;727.88;;;;;;;;;;4966773;28;20026;-96
2023/10/24 22:58:52;;;;;;;870.78;781.97;;;;;;;;;;4983973;28;20034;-96
2023/10/24 23:01:25;;;;;;;878.45;786.92;;;;;;;;;;4979903;28;20039;-96
2023/10/24 23:03:51;;;;;;;854.67;766.55;;;;;;;;;;4980162;28;20030;-96
2023/10/24 23:06:23;;;;;;;823.90;741.30;;;;;;;;;;4980077;28;20077;-96
2023/10/24 23:08:58;;;;;;;842.75;757.30;;;;;;;;;;4956537;29;20046;-96
2023/10/24 23:11:30;;;;;;;844.08;757.38;;;;;;;;;;4939714;29;20036;-95
2023/10/24 23:14:05;;;;;;;852.50;765.30;;;;;;;;;;4925768;29;20035;-96
2023/10/24 23:16:49;;;;;;;865.90;777.50;;;;;;;;;;4940615;29;20142;-96
2023/10/24 23:19:25;;;;;;;;;;;;;;;;;;;;;
2023/10/24 23:21:52;;;;;;;854.83;763.50;;;;;;;;;;4958166;29;20043;-95
2023/10/24 23:24:21;;;;;;;872.25;779.53;;;;;;;;;;4941781;29;20086;-95
2023/10/24 23:26:48;;;;;;;843.33;754.33;;;;;;;;;;4942861;29;20031;-96
2023/10/24 23:29:31;;;;;;;884.10;788.97;;;;;;;;;;4939978;29;20095;-96
2023/10/24 23:31:57;;;;;;;851.63;762.55;;;;;;;;;;4955833;29;20107;-95
2023/10/24 23:34:32;;;;;;;856.90;768.33;;;;;;;;;;4951651;29;20042;-96
2023/10/24 23:40:03;;;;;;;874.28;780.83;;;;;;;;;;4938070;29;20090;-95
2023/10/24 23:42:32;;;;;;;848.88;759.72;;;;;;;;;;4940203;29;20036;-95
2023/10/24 23:45:01;;;;;;;890.78;793.47;;;;;;;;;;4940061;29;20036;-95
2023/10/24 23:47:27;;;;;;;839.03;752.47;;;;;;;;;;4940236;29;20475;-96
2023/10/24 23:49:56;;;;;;;869.33;778.47;;;;;;;;;;4937736;29;20039;-95
2023/10/24 23:52:22;;;;;;;867.33;773.10;;;;;;;;;;4940152;29;20031;-95
2023/10/24 23:54:51;;;;;;;901.65;804.50;;;;;;;;;;4939577;29;20047;-94
2023/10/24 23:57:20;;;;;;;909.85;801.53;;;;;;;;;;4939617;29;20054;-95
2023/10/24 23:59:46;;;;;;;829.15;742.03;;;;;;;;;;4946183;28;20403;-95
